sensor_id;sensor_type;location;lat;lon;timestamp;P1;durP1;ratioP1;P2;durP2;ratioP2
34019;SDS011;20895;51.034;3.742;2023-02-15T00:00:51;73.20;;;53.72;;
34019;SDS011;20895;51.034;3.742;2023-02-15T00:03:19;72.68;;;55.00;;
34019;SDS011;20895;51.034;3.742;2023-02-15T00:05:44;75.13;;;54.30;;
34019;SDS011;20895;51.034;3.742;2023-02-15T00:08:10;79.72;;;53.70;;
34019;SDS011;20895;51.034;3.742;2023-02-15T00:10:35;75.35;;;53.80;;
34019;SDS011;20895;51.034;3.742;2023-02-15T00:13:00;77.78;;;55.40;;
34019;SDS011;20895;51.034;3.742;2023-02-15T00:15:25;77.13;;;54.17;;
34019;SDS011;20895;51.034;3.742;2023-02-15T00:17:51;78.80;;;54.65;;
34019;SDS011;20895;51.034;3.742;2023-02-15T00:20:16;73.45;;;53.30;;
34019;SDS011;20895;51.034;3.742;2023-02-15T00:22:41;76.20;;;54.92;;
34019;SDS011;20895;51.034;3.742;2023-02-15T00:25:06;76.20;;;53.22;;
34019;SDS011;20895;51.034;3.742;2023-02-15T00:27:32;71.90;;;53.03;;
34019;SDS011;20895;51.034;3.742;2023-02-15T00:29:58;77.03;;;53.63;;
34019;SDS011;20895;51.034;3.742;2023-02-15T00:32:23;75.30;;;55.30;;
34019;SDS011;20895;51.034;3.742;2023-02-15T00:34:48;74.32;;;54.30;;
34019;SDS011;20895;51.034;3.742;2023-02-15T00:37:13;74.45;;;53.70;;
34019;SDS011;20895;51.034;3.742;2023-02-15T00:39:39;77.03;;;55.58;;
34019;SDS011;20895;51.034;3.742;2023-02-15T00:42:04;72.60;;;53.08;;
34019;SDS011;20895;51.034;3.742;2023-02-15T00:44:29;74.30;;;53.03;;
34019;SDS011;20895;51.034;3.742;2023-02-15T00:46:55;74.55;;;54.10;;
34019;SDS011;20895;51.034;3.742;2023-02-15T00:49:20;83.15;;;54.45;;
34019;SDS011;20895;51.034;3.742;2023-02-15T00:51:45;81.80;;;54.20;;
34019;SDS011;20895;51.034;3.742;2023-02-15T00:54:10;74.82;;;53.45;;
34019;SDS011;20895;51.034;3.742;2023-02-15T00:56:36;78.45;;;55.15;;
34019;SDS011;20895;51.034;3.742;2023-02-15T00:59:01;71.18;;;51.58;;
34019;SDS011;20895;51.034;3.742;2023-02-15T01:01:26;78.25;;;54.83;;
34019;SDS011;20895;51.034;3.742;2023-02-15T01:03:52;84.43;;;56.05;;
34019;SDS011;20895;51.034;3.742;2023-02-15T01:06:17;76.28;;;56.03;;
34019;SDS011;20895;51.034;3.742;2023-02-15T01:08:43;82.53;;;58.67;;
34019;SDS011;20895;51.034;3.742;2023-02-15T01:11:10;76.05;;;52.67;;
34019;SDS011;20895;51.034;3.742;2023-02-15T01:13:36;76.65;;;55.58;;
34019;SDS011;20895;51.034;3.742;2023-02-15T01:16:01;80.15;;;56.50;;
34019;SDS011;20895;51.034;3.742;2023-02-15T01:18:27;80.05;;;57.78;;
34019;SDS011;20895;51.034;3.742;2023-02-15T01:20:52;74.43;;;53.58;;
34019;SDS011;20895;51.034;3.742;2023-02-15T01:23:18;74.50;;;54.55;;
34019;SDS011;20895;51.034;3.742;2023-02-15T01:25:43;78.68;;;55.22;;
34019;SDS011;20895;51.034;3.742;2023-02-15T01:28:08;72.32;;;51.95;;
34019;SDS011;20895;51.034;3.742;2023-02-15T01:30:33;71.15;;;53.33;;
34019;SDS011;20895;51.034;3.742;2023-02-15T01:32:59;75.78;;;52.25;;
34019;SDS011;20895;51.034;3.742;2023-02-15T01:35:26;71.63;;;52.30;;
34019;SDS011;20895;51.034;3.742;2023-02-15T01:37:51;76.38;;;52.70;;
34019;SDS011;20895;51.034;3.742;2023-02-15T01:40:17;73.63;;;54.10;;
34019;SDS011;20895;51.034;3.742;2023-02-15T01:42:43;75.82;;;53.80;;
34019;SDS011;20895;51.034;3.742;2023-02-15T01:45:16;75.70;;;52.25;;
34019;SDS011;20895;51.034;3.742;2023-02-15T01:50:21;69.15;;;50.70;;
34019;SDS011;20895;51.034;3.742;2023-02-15T01:55:22;75.00;;;51.90;;
34019;SDS011;20895;51.034;3.742;2023-02-15T01:57:48;79.38;;;53.63;;
34019;SDS011;20895;51.034;3.742;2023-02-15T02:00:14;72.05;;;52.90;;
34019;SDS011;20895;51.034;3.742;2023-02-15T02:02:42;73.18;;;50.33;;
34019;SDS011;20895;51.034;3.742;2023-02-15T02:05:08;74.07;;;50.95;;
34019;SDS011;20895;51.034;3.742;2023-02-15T02:07:35;76.20;;;53.50;;
34019;SDS011;20895;51.034;3.742;2023-02-15T02:10:02;72.88;;;52.65;;
34019;SDS011;20895;51.034;3.742;2023-02-15T02:12:28;70.65;;;51.47;;
34019;SDS011;20895;51.034;3.742;2023-02-15T02:14:53;73.28;;;53.15;;
34019;SDS011;20895;51.034;3.742;2023-02-15T02:17:27;69.28;;;51.55;;
34019;SDS011;20895;51.034;3.742;2023-02-15T02:38:42;73.30;;;52.07;;
34019;SDS011;20895;51.034;3.742;2023-02-15T02:41:07;77.25;;;54.65;;
34019;SDS011;20895;51.034;3.742;2023-02-15T02:43:37;82.05;;;55.22;;
34019;SDS011;20895;51.034;3.742;2023-02-15T02:46:07;77.15;;;55.38;;
34019;SDS011;20895;51.034;3.742;2023-02-15T02:48:33;90.18;;;64.70;;
34019;SDS011;20895;51.034;3.742;2023-02-15T02:50:59;83.55;;;56.65;;
34019;SDS011;20895;51.034;3.742;2023-02-15T02:53:24;77.53;;;53.60;;
34019;SDS011;20895;51.034;3.742;2023-02-15T02:55:54;73.00;;;53.72;;
34019;SDS011;20895;51.034;3.742;2023-02-15T02:58:31;77.65;;;54.30;;
34019;SDS011;20895;51.034;3.742;2023-02-15T03:01:03;81.13;;;53.00;;
34019;SDS011;20895;51.034;3.742;2023-02-15T03:06:06;81.40;;;53.78;;
34019;SDS011;20895;51.034;3.742;2023-02-15T03:08:35;82.15;;;56.13;;
34019;SDS011;20895;51.034;3.742;2023-02-15T03:11:02;79.88;;;55.05;;
34019;SDS011;20895;51.034;3.742;2023-02-15T03:13:28;79.65;;;52.75;;
34019;SDS011;20895;51.034;3.742;2023-02-15T03:15:53;79.63;;;55.22;;
34019;SDS011;20895;51.034;3.742;2023-02-15T03:19:01;79.38;;;54.65;;
34019;SDS011;20895;51.034;3.742;2023-02-15T03:21:31;75.18;;;53.28;;
34019;SDS011;20895;51.034;3.742;2023-02-15T03:24:00;75.70;;;53.50;;
34019;SDS011;20895;51.034;3.742;2023-02-15T03:26:27;76.53;;;53.70;;
34019;SDS011;20895;51.034;3.742;2023-02-15T03:28:54;73.72;;;53.28;;
34019;SDS011;20895;51.034;3.742;2023-02-15T03:31:20;79.45;;;54.90;;
34019;SDS011;20895;51.034;3.742;2023-02-15T03:33:49;78.13;;;54.78;;
34019;SDS011;20895;51.034;3.742;2023-02-15T03:36:18;71.07;;;51.25;;
34019;SDS011;20895;51.034;3.742;2023-02-15T03:38:47;72.47;;;51.38;;
34019;SDS011;20895;51.034;3.742;2023-02-15T03:41:14;77.35;;;54.13;;
34019;SDS011;20895;51.034;3.742;2023-02-15T03:46:17;72.85;;;50.60;;
34019;SDS011;20895;51.034;3.742;2023-02-15T03:48:55;76.78;;;52.13;;
34019;SDS011;20895;51.034;3.742;2023-02-15T03:51:23;75.50;;;52.08;;
34019;SDS011;20895;51.034;3.742;2023-02-15T03:54:00;76.88;;;49.50;;
34019;SDS011;20895;51.034;3.742;2023-02-15T03:56:26;79.38;;;50.83;;
34019;SDS011;20895;51.034;3.742;2023-02-15T03:58:51;70.10;;;51.72;;
34019;SDS011;20895;51.034;3.742;2023-02-15T04:02:36;75.30;;;50.40;;
34019;SDS011;20895;51.034;3.742;2023-02-15T04:04:37;71.57;;;52.05;;
34019;SDS011;20895;51.034;3.742;2023-02-15T04:07:04;73.13;;;49.67;;
34019;SDS011;20895;51.034;3.742;2023-02-15T04:09:30;74.20;;;50.20;;
34019;SDS011;20895;51.034;3.742;2023-02-15T04:12:14;75.78;;;50.72;;
34019;SDS011;20895;51.034;3.742;2023-02-15T04:14:39;76.07;;;51.75;;
34019;SDS011;20895;51.034;3.742;2023-02-15T04:17:24;72.20;;;50.15;;
34019;SDS011;20895;51.034;3.742;2023-02-15T04:19:49;66.97;;;49.60;;
34019;SDS011;20895;51.034;3.742;2023-02-15T04:22:33;74.45;;;51.75;;
34019;SDS011;20895;51.034;3.742;2023-02-15T04:27:43;75.75;;;48.85;;
34019;SDS011;20895;51.034;3.742;2023-02-15T04:30:09;71.30;;;48.40;;
34019;SDS011;20895;51.034;3.742;2023-02-15T04:32:35;68.38;;;48.33;;
34019;SDS011;20895;51.034;3.742;2023-02-15T04:35:00;68.22;;;47.95;;
34019;SDS011;20895;51.034;3.742;2023-02-15T04:37:26;67.43;;;49.03;;
34019;SDS011;20895;51.034;3.742;2023-02-15T04:39:51;67.93;;;47.42;;
34019;SDS011;20895;51.034;3.742;2023-02-15T04:42:16;67.57;;;48.28;;
34019;SDS011;20895;51.034;3.742;2023-02-15T04:44:42;68.22;;;48.67;;
34019;SDS011;20895;51.034;3.742;2023-02-15T04:47:07;66.25;;;47.53;;
34019;SDS011;20895;51.034;3.742;2023-02-15T04:49:32;64.20;;;46.55;;
34019;SDS011;20895;51.034;3.742;2023-02-15T04:51:58;68.03;;;48.17;;
34019;SDS011;20895;51.034;3.742;2023-02-15T04:54:23;75.07;;;49.08;;
34019;SDS011;20895;51.034;3.742;2023-02-15T04:56:48;70.95;;;48.78;;
34019;SDS011;20895;51.034;3.742;2023-02-15T04:59:14;67.57;;;47.42;;
34019;SDS011;20895;51.034;3.742;2023-02-15T05:01:39;69.75;;;48.15;;
34019;SDS011;20895;51.034;3.742;2023-02-15T05:04:04;68.25;;;47.75;;
34019;SDS011;20895;51.034;3.742;2023-02-15T05:06:29;70.35;;;46.60;;
34019;SDS011;20895;51.034;3.742;2023-02-15T05:08:55;69.28;;;46.60;;
34019;SDS011;20895;51.034;3.742;2023-02-15T05:11:20;68.47;;;47.00;;
34019;SDS011;20895;51.034;3.742;2023-02-15T05:13:46;68.93;;;47.72;;
34019;SDS011;20895;51.034;3.742;2023-02-15T05:16:11;72.15;;;49.42;;
34019;SDS011;20895;51.034;3.742;2023-02-15T05:18:36;73.93;;;47.70;;
34019;SDS011;20895;51.034;3.742;2023-02-15T05:21:02;75.07;;;49.67;;
34019;SDS011;20895;51.034;3.742;2023-02-15T05:23:27;82.60;;;51.28;;
34019;SDS011;20895;51.034;3.742;2023-02-15T05:25:52;87.10;;;51.95;;
34019;SDS011;20895;51.034;3.742;2023-02-15T05:28:36;87.72;;;53.05;;
34019;SDS011;20895;51.034;3.742;2023-02-15T05:31:15;84.03;;;52.58;;
34019;SDS011;20895;51.034;3.742;2023-02-15T05:33:41;79.43;;;51.17;;
34019;SDS011;20895;51.034;3.742;2023-02-15T05:36:07;83.60;;;52.50;;
34019;SDS011;20895;51.034;3.742;2023-02-15T05:38:33;76.18;;;49.47;;
34019;SDS011;20895;51.034;3.742;2023-02-15T05:40:58;77.00;;;49.33;;
34019;SDS011;20895;51.034;3.742;2023-02-15T05:43:23;73.20;;;49.38;;
34019;SDS011;20895;51.034;3.742;2023-02-15T05:45:50;71.60;;;47.08;;
34019;SDS011;20895;51.034;3.742;2023-02-15T05:48:15;75.05;;;46.47;;
34019;SDS011;20895;51.034;3.742;2023-02-15T05:50:41;68.22;;;45.05;;
34019;SDS011;20895;51.034;3.742;2023-02-15T05:53:06;73.88;;;47.00;;
34019;SDS011;20895;51.034;3.742;2023-02-15T05:55:31;75.53;;;47.17;;
34019;SDS011;20895;51.034;3.742;2023-02-15T05:57:56;68.32;;;45.03;;
34019;SDS011;20895;51.034;3.742;2023-02-15T06:00:22;71.40;;;45.83;;
34019;SDS011;20895;51.034;3.742;2023-02-15T06:02:47;66.10;;;45.97;;
34019;SDS011;20895;51.034;3.742;2023-02-15T06:05:12;67.32;;;46.28;;
34019;SDS011;20895;51.034;3.742;2023-02-15T06:07:38;66.75;;;44.00;;
34019;SDS011;20895;51.034;3.742;2023-02-15T06:10:03;60.97;;;43.53;;
34019;SDS011;20895;51.034;3.742;2023-02-15T06:12:29;65.93;;;44.00;;
34019;SDS011;20895;51.034;3.742;2023-02-15T06:14:54;67.15;;;46.47;;
34019;SDS011;20895;51.034;3.742;2023-02-15T06:17:19;62.58;;;46.03;;
34019;SDS011;20895;51.034;3.742;2023-02-15T06:19:46;66.05;;;44.35;;
34019;SDS011;20895;51.034;3.742;2023-02-15T06:22:11;74.68;;;43.33;;
34019;SDS011;20895;51.034;3.742;2023-02-15T06:24:38;65.80;;;43.85;;
34019;SDS011;20895;51.034;3.742;2023-02-15T06:27:04;67.47;;;43.40;;
34019;SDS011;20895;51.034;3.742;2023-02-15T06:29:29;63.25;;;42.58;;
34019;SDS011;20895;51.034;3.742;2023-02-15T06:31:54;65.03;;;43.60;;
34019;SDS011;20895;51.034;3.742;2023-02-15T06:34:19;67.82;;;43.90;;
34019;SDS011;20895;51.034;3.742;2023-02-15T06:36:45;66.63;;;43.30;;
34019;SDS011;20895;51.034;3.742;2023-02-15T06:39:10;65.97;;;42.05;;
34019;SDS011;20895;51.034;3.742;2023-02-15T06:41:35;60.92;;;41.90;;
34019;SDS011;20895;51.034;3.742;2023-02-15T06:44:00;71.70;;;43.22;;
34019;SDS011;20895;51.034;3.742;2023-02-15T06:46:26;65.47;;;42.78;;
34019;SDS011;20895;51.034;3.742;2023-02-15T06:48:51;62.42;;;43.35;;
34019;SDS011;20895;51.034;3.742;2023-02-15T06:51:16;64.50;;;43.83;;
34019;SDS011;20895;51.034;3.742;2023-02-15T06:53:42;68.25;;;44.33;;
34019;SDS011;20895;51.034;3.742;2023-02-15T06:56:08;60.25;;;40.95;;
34019;SDS011;20895;51.034;3.742;2023-02-15T06:58:37;65.65;;;41.28;;
34019;SDS011;20895;51.034;3.742;2023-02-15T07:01:03;60.05;;;42.20;;
34019;SDS011;20895;51.034;3.742;2023-02-15T07:03:28;63.55;;;40.70;;
34019;SDS011;20895;51.034;3.742;2023-02-15T07:05:54;61.35;;;40.45;;
34019;SDS011;20895;51.034;3.742;2023-02-15T07:08:20;61.42;;;42.00;;
34019;SDS011;20895;51.034;3.742;2023-02-15T07:10:45;63.22;;;40.60;;
34019;SDS011;20895;51.034;3.742;2023-02-15T07:13:11;58.17;;;42.20;;
34019;SDS011;20895;51.034;3.742;2023-02-15T07:15:36;58.35;;;41.20;;
34019;SDS011;20895;51.034;3.742;2023-02-15T07:18:01;64.38;;;42.85;;
34019;SDS011;20895;51.034;3.742;2023-02-15T07:20:27;63.92;;;41.05;;
34019;SDS011;20895;51.034;3.742;2023-02-15T07:22:53;58.25;;;39.60;;
34019;SDS011;20895;51.034;3.742;2023-02-15T07:25:18;67.63;;;40.45;;
34019;SDS011;20895;51.034;3.742;2023-02-15T07:27:44;56.28;;;38.22;;
34019;SDS011;20895;51.034;3.742;2023-02-15T07:30:10;61.92;;;38.70;;
34019;SDS011;20895;51.034;3.742;2023-02-15T07:32:36;58.67;;;39.38;;
34019;SDS011;20895;51.034;3.742;2023-02-15T07:35:01;61.35;;;39.72;;
34019;SDS011;20895;51.034;3.742;2023-02-15T07:37:27;62.13;;;38.58;;
34019;SDS011;20895;51.034;3.742;2023-02-15T07:39:52;56.15;;;39.63;;
34019;SDS011;20895;51.034;3.742;2023-02-15T07:42:17;58.60;;;40.05;;
34019;SDS011;20895;51.034;3.742;2023-02-15T07:44:44;54.80;;;39.03;;
34019;SDS011;20895;51.034;3.742;2023-02-15T07:47:10;56.88;;;38.95;;
34019;SDS011;20895;51.034;3.742;2023-02-15T07:49:35;64.95;;;39.58;;
34019;SDS011;20895;51.034;3.742;2023-02-15T07:52:01;82.05;;;42.60;;
34019;SDS011;20895;51.034;3.742;2023-02-15T07:54:26;60.92;;;38.10;;
34019;SDS011;20895;51.034;3.742;2023-02-15T07:56:52;59.63;;;39.90;;
34019;SDS011;20895;51.034;3.742;2023-02-15T07:59:17;55.42;;;38.28;;
34019;SDS011;20895;51.034;3.742;2023-02-15T08:01:42;58.40;;;40.40;;
34019;SDS011;20895;51.034;3.742;2023-02-15T08:04:08;61.25;;;39.60;;
34019;SDS011;20895;51.034;3.742;2023-02-15T08:06:35;55.05;;;36.20;;
34019;SDS011;20895;51.034;3.742;2023-02-15T08:09:02;52.70;;;38.88;;
34019;SDS011;20895;51.034;3.742;2023-02-15T08:11:29;62.60;;;42.83;;
34019;SDS011;20895;51.034;3.742;2023-02-15T08:14:08;59.67;;;40.78;;
34019;SDS011;20895;51.034;3.742;2023-02-15T08:18:59;60.65;;;39.42;;
34019;SDS011;20895;51.034;3.742;2023-02-15T08:21:25;56.13;;;38.05;;
34019;SDS011;20895;51.034;3.742;2023-02-15T08:23:51;59.05;;;37.22;;
34019;SDS011;20895;51.034;3.742;2023-02-15T08:26:17;67.10;;;44.30;;
34019;SDS011;20895;51.034;3.742;2023-02-15T08:28:42;50.47;;;36.72;;
34019;SDS011;20895;51.034;3.742;2023-02-15T08:31:09;51.90;;;37.15;;
34019;SDS011;20895;51.034;3.742;2023-02-15T08:33:35;52.92;;;35.78;;
34019;SDS011;20895;51.034;3.742;2023-02-15T08:36:08;51.97;;;35.33;;
34019;SDS011;20895;51.034;3.742;2023-02-15T08:38:34;53.00;;;34.22;;
34019;SDS011;20895;51.034;3.742;2023-02-15T08:41:10;48.58;;;34.03;;
34019;SDS011;20895;51.034;3.742;2023-02-15T08:43:35;51.88;;;34.38;;
34019;SDS011;20895;51.034;3.742;2023-02-15T08:46:00;50.95;;;34.97;;
34019;SDS011;20895;51.034;3.742;2023-02-15T08:48:25;55.25;;;35.58;;
34019;SDS011;20895;51.034;3.742;2023-02-15T08:50:51;48.33;;;32.67;;
34019;SDS011;20895;51.034;3.742;2023-02-15T08:53:16;49.85;;;33.20;;
34019;SDS011;20895;51.034;3.742;2023-02-15T08:55:45;50.92;;;35.13;;
34019;SDS011;20895;51.034;3.742;2023-02-15T08:58:10;46.70;;;30.75;;
34019;SDS011;20895;51.034;3.742;2023-02-15T09:00:35;51.55;;;30.60;;
34019;SDS011;20895;51.034;3.742;2023-02-15T09:03:00;46.22;;;31.88;;
34019;SDS011;20895;51.034;3.742;2023-02-15T09:05:26;46.92;;;30.05;;
34019;SDS011;20895;51.034;3.742;2023-02-15T09:07:51;47.65;;;31.10;;
34019;SDS011;20895;51.034;3.742;2023-02-15T09:10:16;45.75;;;29.63;;
34019;SDS011;20895;51.034;3.742;2023-02-15T09:12:42;42.13;;;29.13;;
34019;SDS011;20895;51.034;3.742;2023-02-15T09:15:07;52.10;;;30.88;;
34019;SDS011;20895;51.034;3.742;2023-02-15T09:17:32;45.25;;;30.52;;
34019;SDS011;20895;51.034;3.742;2023-02-15T09:19:57;43.35;;;29.02;;
34019;SDS011;20895;51.034;3.742;2023-02-15T09:22:23;49.60;;;30.23;;
34019;SDS011;20895;51.034;3.742;2023-02-15T09:24:48;50.67;;;30.67;;
34019;SDS011;20895;51.034;3.742;2023-02-15T09:27:14;43.05;;;27.30;;
34019;SDS011;20895;51.034;3.742;2023-02-15T09:29:39;47.38;;;29.10;;
34019;SDS011;20895;51.034;3.742;2023-02-15T09:32:04;40.72;;;26.80;;
34019;SDS011;20895;51.034;3.742;2023-02-15T09:34:30;41.72;;;27.23;;
34019;SDS011;20895;51.034;3.742;2023-02-15T09:36:55;40.88;;;27.38;;
34019;SDS011;20895;51.034;3.742;2023-02-15T09:39:24;46.42;;;29.15;;
34019;SDS011;20895;51.034;3.742;2023-02-15T09:59:57;37.80;;;26.70;;
34019;SDS011;20895;51.034;3.742;2023-02-15T10:12:18;37.67;;;24.17;;
34019;SDS011;20895;51.034;3.742;2023-02-15T10:14:51;38.88;;;26.00;;
34019;SDS011;20895;51.034;3.742;2023-02-15T10:27:25;39.47;;;25.50;;
34019;SDS011;20895;51.034;3.742;2023-02-15T10:29:58;31.08;;;20.00;;
34019;SDS011;20895;51.034;3.742;2023-02-15T10:32:27;40.33;;;25.05;;
34019;SDS011;20895;51.034;3.742;2023-02-15T10:37:38;41.97;;;26.25;;
34019;SDS011;20895;51.034;3.742;2023-02-15T10:40:09;48.75;;;27.02;;
34019;SDS011;20895;51.034;3.742;2023-02-15T10:43:03;36.38;;;25.98;;
34019;SDS011;20895;51.034;3.742;2023-02-15T10:45:46;37.58;;;25.80;;
34019;SDS011;20895;51.034;3.742;2023-02-15T11:06:19;51.92;;;27.23;;
34019;SDS011;20895;51.034;3.742;2023-02-15T11:11:47;45.10;;;28.30;;
34019;SDS011;20895;51.034;3.742;2023-02-15T11:19:23;59.03;;;26.27;;
34019;SDS011;20895;51.034;3.742;2023-02-15T11:21:53;40.50;;;27.38;;
34019;SDS011;20895;51.034;3.742;2023-02-15T11:24:20;42.47;;;27.02;;
34019;SDS011;20895;51.034;3.742;2023-02-15T11:26:54;39.53;;;26.55;;
34019;SDS011;20895;51.034;3.742;2023-02-15T11:29:22;56.28;;;29.63;;
34019;SDS011;20895;51.034;3.742;2023-02-15T11:31:55;47.30;;;27.90;;
34019;SDS011;20895;51.034;3.742;2023-02-15T11:36:47;40.10;;;27.15;;
34019;SDS011;20895;51.034;3.742;2023-02-15T11:39:14;42.88;;;27.17;;
34019;SDS011;20895;51.034;3.742;2023-02-15T11:41:41;39.50;;;27.38;;
34019;SDS011;20895;51.034;3.742;2023-02-15T11:46:37;52.00;;;25.90;;
34019;SDS011;20895;51.034;3.742;2023-02-15T11:49:04;38.13;;;24.80;;
34019;SDS011;20895;51.034;3.742;2023-02-15T11:51:32;41.97;;;27.45;;
34019;SDS011;20895;51.034;3.742;2023-02-15T11:53:57;38.92;;;26.75;;
34019;SDS011;20895;51.034;3.742;2023-02-15T11:56:23;42.45;;;27.67;;
34019;SDS011;20895;51.034;3.742;2023-02-15T11:58:56;39.08;;;25.67;;
34019;SDS011;20895;51.034;3.742;2023-02-15T12:01:24;36.90;;;23.17;;
34019;SDS011;20895;51.034;3.742;2023-02-15T12:03:54;39.10;;;27.33;;
34019;SDS011;20895;51.034;3.742;2023-02-15T12:06:25;47.58;;;27.15;;
34019;SDS011;20895;51.034;3.742;2023-02-15T12:11:28;40.95;;;25.98;;
34019;SDS011;20895;51.034;3.742;2023-02-15T12:14:01;38.65;;;24.90;;
34019;SDS011;20895;51.034;3.742;2023-02-15T12:16:27;42.53;;;26.02;;
34019;SDS011;20895;51.034;3.742;2023-02-15T12:18:56;36.15;;;25.27;;
34019;SDS011;20895;51.034;3.742;2023-02-15T12:23:51;46.78;;;27.35;;
34019;SDS011;20895;51.034;3.742;2023-02-15T12:26:33;35.00;;;24.05;;
34019;SDS011;20895;51.034;3.742;2023-02-15T12:29:00;46.97;;;26.73;;
34019;SDS011;20895;51.034;3.742;2023-02-15T12:31:38;35.90;;;25.17;;
34019;SDS011;20895;51.034;3.742;2023-02-15T12:34:09;40.53;;;27.80;;
34019;SDS011;20895;51.034;3.742;2023-02-15T12:36:43;39.25;;;27.52;;
34019;SDS011;20895;51.034;3.742;2023-02-15T12:41:36;39.15;;;26.48;;
34019;SDS011;20895;51.034;3.742;2023-02-15T12:44:03;43.63;;;25.58;;
34019;SDS011;20895;51.034;3.742;2023-02-15T12:46:28;36.03;;;24.48;;
34019;SDS011;20895;51.034;3.742;2023-02-15T12:49:16;41.17;;;25.63;;
34019;SDS011;20895;51.034;3.742;2023-02-15T12:52:00;37.08;;;25.95;;
34019;SDS011;20895;51.034;3.742;2023-02-15T12:56:51;32.55;;;23.85;;
34019;SDS011;20895;51.034;3.742;2023-02-15T12:59:16;37.83;;;26.35;;
34019;SDS011;20895;51.034;3.742;2023-02-15T13:01:46;37.83;;;26.05;;
34019;SDS011;20895;51.034;3.742;2023-02-15T13:04:22;35.10;;;25.02;;
34019;SDS011;20895;51.034;3.742;2023-02-15T13:06:49;35.22;;;25.63;;
34019;SDS011;20895;51.034;3.742;2023-02-15T13:09:18;36.30;;;25.65;;
34019;SDS011;20895;51.034;3.742;2023-02-15T13:11:44;39.30;;;27.38;;
34019;SDS011;20895;51.034;3.742;2023-02-15T13:14:28;39.50;;;27.02;;
34019;SDS011;20895;51.034;3.742;2023-02-15T13:16:56;36.40;;;26.15;;
34019;SDS011;20895;51.034;3.742;2023-02-15T13:19:29;35.90;;;25.73;;
34019;SDS011;20895;51.034;3.742;2023-02-15T13:21:56;40.47;;;26.92;;
34019;SDS011;20895;51.034;3.742;2023-02-15T13:24:56;33.50;;;24.50;;
34019;SDS011;20895;51.034;3.742;2023-02-15T13:27:15;35.40;;;25.45;;
34019;SDS011;20895;51.034;3.742;2023-02-15T13:29:42;36.45;;;26.70;;
34019;SDS011;20895;51.034;3.742;2023-02-15T13:32:15;36.25;;;27.27;;
34019;SDS011;20895;51.034;3.742;2023-02-15T13:34:44;38.70;;;27.63;;
34019;SDS011;20895;51.034;3.742;2023-02-15T13:37:15;36.15;;;26.33;;
34019;SDS011;20895;51.034;3.742;2023-02-15T13:39:51;32.55;;;23.20;;
34019;SDS011;20895;51.034;3.742;2023-02-15T13:47:28;37.53;;;26.27;;
34019;SDS011;20895;51.034;3.742;2023-02-15T13:52:21;37.78;;;26.02;;
34019;SDS011;20895;51.034;3.742;2023-02-15T14:10:42;33.95;;;27.25;;
34019;SDS011;20895;51.034;3.742;2023-02-15T14:23:48;38.63;;;27.83;;
34019;SDS011;20895;51.034;3.742;2023-02-15T14:26:35;37.28;;;25.83;;
34019;SDS011;20895;51.034;3.742;2023-02-15T14:29:22;35.50;;;27.25;;
34019;SDS011;20895;51.034;3.742;2023-02-15T14:31:50;37.03;;;25.55;;
34019;SDS011;20895;51.034;3.742;2023-02-15T14:36:52;38.28;;;27.00;;
34019;SDS011;20895;51.034;3.742;2023-02-15T14:44:41;36.17;;;27.20;;
34019;SDS011;20895;51.034;3.742;2023-02-15T14:47:13;37.88;;;24.52;;
34019;SDS011;20895;51.034;3.742;2023-02-15T14:49:43;31.85;;;23.35;;
34019;SDS011;20895;51.034;3.742;2023-02-15T14:52:09;31.20;;;22.83;;
34019;SDS011;20895;51.034;3.742;2023-02-15T14:59:43;40.58;;;26.75;;
34019;SDS011;20895;51.034;3.742;2023-02-15T15:02:12;41.97;;;26.00;;
34019;SDS011;20895;51.034;3.742;2023-02-15T15:04:40;41.22;;;25.50;;
34019;SDS011;20895;51.034;3.742;2023-02-15T15:09:41;35.53;;;26.17;;
34019;SDS011;20895;51.034;3.742;2023-02-15T15:12:14;37.70;;;24.63;;
34019;SDS011;20895;51.034;3.742;2023-02-15T15:14:41;41.05;;;26.50;;
34019;SDS011;20895;51.034;3.742;2023-02-15T15:17:09;33.83;;;24.23;;
34019;SDS011;20895;51.034;3.742;2023-02-15T15:22:22;39.13;;;25.58;;
34019;SDS011;20895;51.034;3.742;2023-02-15T15:24:49;42.25;;;24.38;;
34019;SDS011;20895;51.034;3.742;2023-02-15T15:29:59;37.63;;;24.67;;
34019;SDS011;20895;51.034;3.742;2023-02-15T15:32:26;34.35;;;26.30;;
34019;SDS011;20895;51.034;3.742;2023-02-15T15:50:47;33.10;;;25.15;;
34019;SDS011;20895;51.034;3.742;2023-02-15T15:53:20;40.78;;;26.20;;
34019;SDS011;20895;51.034;3.742;2023-02-15T15:55:47;36.78;;;25.25;;
34019;SDS011;20895;51.034;3.742;2023-02-15T15:58:13;37.58;;;24.58;;
34019;SDS011;20895;51.034;3.742;2023-02-15T16:03:22;38.05;;;26.15;;
34019;SDS011;20895;51.034;3.742;2023-02-15T16:05:48;35.13;;;25.90;;
34019;SDS011;20895;51.034;3.742;2023-02-15T16:08:35;37.25;;;26.20;;
34019;SDS011;20895;51.034;3.742;2023-02-15T16:11:11;41.45;;;26.20;;
34019;SDS011;20895;51.034;3.742;2023-02-15T16:13:39;40.35;;;26.65;;
34019;SDS011;20895;51.034;3.742;2023-02-15T16:16:05;35.88;;;26.45;;
34019;SDS011;20895;51.034;3.742;2023-02-15T16:18:30;36.38;;;25.10;;
34019;SDS011;20895;51.034;3.742;2023-02-15T16:20:57;36.42;;;25.95;;
34019;SDS011;20895;51.034;3.742;2023-02-15T16:28:36;43.20;;;26.42;;
34019;SDS011;20895;51.034;3.742;2023-02-15T16:31:06;38.92;;;26.85;;
34019;SDS011;20895;51.034;3.742;2023-02-15T16:33:35;39.30;;;26.33;;
34019;SDS011;20895;51.034;3.742;2023-02-15T16:36:01;43.80;;;26.80;;
34019;SDS011;20895;51.034;3.742;2023-02-15T16:41:05;39.55;;;26.52;;
34019;SDS011;20895;51.034;3.742;2023-02-15T16:43:30;35.47;;;26.80;;
34019;SDS011;20895;51.034;3.742;2023-02-15T16:46:03;37.42;;;25.60;;
34019;SDS011;20895;51.034;3.742;2023-02-15T16:48:29;48.38;;;27.20;;
34019;SDS011;20895;51.034;3.742;2023-02-15T16:50:55;43.45;;;27.45;;
34019;SDS011;20895;51.034;3.742;2023-02-15T16:53:26;40.83;;;28.48;;
34019;SDS011;20895;51.034;3.742;2023-02-15T16:56:01;42.05;;;28.05;;
34019;SDS011;20895;51.034;3.742;2023-02-15T16:58:37;44.78;;;32.58;;
34019;SDS011;20895;51.034;3.742;2023-02-15T17:01:03;37.47;;;28.60;;
34019;SDS011;20895;51.034;3.742;2023-02-15T17:03:30;53.05;;;46.72;;
34019;SDS011;20895;51.034;3.742;2023-02-15T17:05:59;41.70;;;29.48;;
34019;SDS011;20895;51.034;3.742;2023-02-15T17:08:34;39.00;;;26.75;;
34019;SDS011;20895;51.034;3.742;2023-02-15T17:13:34;43.42;;;28.63;;
34019;SDS011;20895;51.034;3.742;2023-02-15T17:18:28;45.85;;;28.58;;
34019;SDS011;20895;51.034;3.742;2023-02-15T17:20:55;41.38;;;29.67;;
34019;SDS011;20895;51.034;3.742;2023-02-15T17:25:46;40.30;;;27.77;;
34019;SDS011;20895;51.034;3.742;2023-02-15T17:28:16;45.85;;;28.02;;
34019;SDS011;20895;51.034;3.742;2023-02-15T17:30:42;41.70;;;28.20;;
34019;SDS011;20895;51.034;3.742;2023-02-15T17:33:18;41.13;;;28.48;;
34019;SDS011;20895;51.034;3.742;2023-02-15T17:35:44;39.45;;;27.77;;
34019;SDS011;20895;51.034;3.742;2023-02-15T17:38:26;39.15;;;27.20;;
34019;SDS011;20895;51.034;3.742;2023-02-15T17:40:52;38.80;;;28.35;;
34019;SDS011;20895;51.034;3.742;2023-02-15T17:43:17;39.08;;;27.85;;
34019;SDS011;20895;51.034;3.742;2023-02-15T17:45:47;41.05;;;27.52;;
34019;SDS011;20895;51.034;3.742;2023-02-15T17:48:36;44.65;;;28.00;;
34019;SDS011;20895;51.034;3.742;2023-02-15T17:50:59;43.83;;;29.10;;